Time;durP1;ratioP1;P1;durP2;ratioP2;P2;SDS_P1;SDS_P2;PMS_P1;PMS_P2;Temp;Humidity;BMP_temperature;BMP_pressure;BME280_temperature;BME280_humidity;BME280_pressure;Samples;Min_cycle;Max_cycle;Signal;HPM_P1;HPM_P2
2022/09/03 00:00:34;;;;;;;2.85;1.42;;;17.30;96.30;;;;;;4792117;29;20061;-79
2022/09/03 00:03:33;;;;;;;1.88;1.25;;;17.20;96.20;;;;;;4791777;29;20062;-79
2022/09/03 00:06:11;;;;;;;2.47;1.38;;;17.20;96.30;;;;;;4807882;29;20055;-80
2022/09/03 00:09:06;;;;;;;2.83;1.60;;;17.00;96.50;;;;;;4790936;29;20058;-79
2022/09/03 00:11:43;;;;;;;3.85;1.70;;;17.00;96.30;;;;;;4791681;29;20498;-79
2022/09/03 00:14:18;;;;;;;3.53;1.30;;;16.90;96.80;;;;;;4791414;29;20050;-80
2022/09/03 00:17:06;;;;;;;3.83;1.48;;;16.90;96.80;;;;;;4790236;29;20054;-80
2022/09/03 00:19:43;;;;;;;5.18;1.58;;;16.80;96.70;;;;;;4807535;29;20517;-79
2022/09/03 00:22:17;;;;;;;2.92;1.30;;;16.80;97.20;;;;;;4791644;29;20058;-79
2022/09/03 00:24:45;;;;;;;1.85;1.25;;;16.70;97.00;;;;;;4791674;29;20066;-79
2022/09/03 00:27:22;;;;;;;2.78;1.40;;;16.70;96.70;;;;;;4791247;29;20054;-80
2022/09/03 00:29:58;;;;;;;2.20;1.40;;;16.70;97.20;;;;;;4791730;29;20134;-79
2022/09/03 00:32:41;;;;;;;2.63;1.35;;;16.60;96.90;;;;;;4807590;29;20118;-79
2022/09/03 00:35:15;;;;;;;2.80;1.30;;;16.60;97.30;;;;;;4791198;29;20567;-79
2022/09/03 00:37:41;;;;;;;3.78;1.50;;;16.50;97.40;;;;;;4790858;29;20104;-78
2022/09/03 00:40:21;;;;;;;3.47;1.45;;;16.40;97.30;;;;;;4790948;29;20047;-79
2022/09/03 00:42:57;;;;;;;4.45;1.35;;;16.40;97.30;;;;;;4790820;29;20063;-79
2022/09/03 00:45:30;;;;;;;3.38;1.55;;;16.40;97.70;;;;;;4791259;29;20062;-80
2022/09/03 00:48:21;;;;;;;3.65;1.60;;;16.40;97.50;;;;;;4807354;29;20648;-79
2022/09/03 00:51:06;;;;;;;5.30;2.10;;;16.30;97.30;;;;;;4791400;29;20058;-80
2022/09/03 00:54:01;;;;;;;2.67;1.60;;;16.20;97.90;;;;;;4790845;29;20054;-79
2022/09/03 00:56:33;;;;;;;8.45;1.70;;;16.20;97.60;;;;;;4791062;29;20055;-80
2022/09/03 00:59:14;;;;;;;4.53;1.65;;;16.10;97.70;;;;;;4790616;29;20065;-80
2022/09/03 01:02:05;;;;;;;4.68;1.70;;;16.10;98.20;;;;;;4790713;29;20051;-79
2022/09/03 01:05:03;;;;;;;3.15;1.63;;;16.10;97.70;;;;;;4790828;29;20058;-79
2022/09/03 01:07:52;;;;;;;2.45;1.50;;;16.00;98.30;;;;;;4806851;29;20083;-79
2022/09/03 01:10:27;;;;;;;5.35;1.70;;;16.00;98.40;;;;;;4790773;29;20399;-79
2022/09/03 01:13:20;;;;;;;3.42;1.88;;;15.90;97.90;;;;;;4806655;29;20087;-79
2022/09/03 01:15:58;;;;;;;;;;;16.00;98.10;;;;;;4791125;29;20093;-78
2022/09/03 01:18:51;;;;;;;3.72;1.65;;;15.90;98.20;;;;;;4790314;29;19932;-80
2022/09/03 01:21:22;;;;;;;3.05;1.70;;;15.90;98.60;;;;;;4790432;29;20459;-79
2022/09/03 01:24:28;;;;;;;2.80;1.80;;;15.90;97.90;;;;;;4790507;29;20395;-79
2022/09/03 01:27:06;;;;;;;5.03;1.70;;;15.80;98.50;;;;;;4790666;29;20050;-79
2022/09/03 01:29:43;;;;;;;2.67;1.67;;;15.80;98.20;;;;;;4790367;29;20141;-79
2022/09/03 01:32:24;;;;;;;4.13;1.90;;;15.80;98.00;;;;;;4806646;29;20118;-80
2022/09/03 01:35:09;;;;;;;3.38;2.08;;;15.80;98.00;;;;;;4790514;29;20430;-79
2022/09/03 01:37:50;;;;;;;2.90;1.90;;;15.70;98.20;;;;;;4790261;29;20046;-85
2022/09/03 01:40:27;;;;;;;3.22;1.60;;;15.70;98.50;;;;;;4790496;29;20059;-82
2022/09/03 01:43:34;;;;;;;2.47;1.52;;;15.60;98.60;;;;;;4790119;29;20050;-79
2022/09/03 01:46:17;;;;;;;3.95;1.42;;;15.70;98.60;;;;;;4806410;29;20050;-79
2022/09/03 01:48:51;;;;;;;3.78;1.23;;;15.60;98.90;;;;;;4790117;29;20059;-79
2022/09/03 01:51:26;;;;;;;3.97;1.48;;;15.70;98.70;;;;;;4790122;29;20055;-79
2022/09/03 01:54:09;;;;;;;2.78;1.30;;;15.60;98.30;;;;;;4806417;29;20105;-79
2022/09/03 01:57:19;;;;;;;1.98;1.42;;;15.60;98.90;;;;;;4790136;29;20431;-79
2022/09/03 01:59:57;;;;;;;2.95;1.23;;;15.60;98.30;;;;;;4789930;29;20061;-79
2022/09/03 02:02:25;;;;;;;2.78;1.40;;;15.50;98.90;;;;;;4790169;29;20054;-79
2022/09/03 02:05:08;;;;;;;2.58;1.23;;;15.60;98.50;;;;;;4806246;29;20053;-79
2022/09/03 02:07:37;;;;;;;4.63;1.45;;;15.60;98.90;;;;;;4790132;29;20053;-80
2022/09/03 02:10:24;;;;;;;3.03;1.38;;;15.60;98.40;;;;;;4806058;29;20047;-80
2022/09/03 02:13:03;;;;;;;3.80;1.23;;;15.50;98.30;;;;;;4806275;29;20125;-79
2022/09/03 02:15:31;;;;;;;4.68;1.80;;;15.50;98.40;;;;;;4789919;29;20556;-79
2022/09/03 02:18:01;;;;;;;3.85;1.20;;;15.50;98.80;;;;;;4789694;29;20069;-80
2022/09/03 02:20:28;;;;;;;2.75;1.20;;;15.50;98.40;;;;;;4790023;29;20130;-79
2022/09/03 02:22:55;;;;;;;4.43;1.55;;;15.50;98.60;;;;;;4789761;29;20051;-79
2022/09/03 02:25:27;;;;;;;3.22;1.00;;;15.50;98.50;;;;;;4806127;29;20047;-80
2022/09/03 02:27:53;;;;;;;2.47;1.30;;;15.60;98.40;;;;;;4790180;29;20484;-79
2022/09/03 02:30:18;;;;;;;3.67;1.40;;;15.50;98.60;;;;;;4806387;29;20057;-79
2022/09/03 02:32:44;;;;;;;4.68;1.58;;;15.50;98.50;;;;;;4793418;29;20537;-79
2022/09/03 02:35:13;;;;;;;2.33;1.30;;;15.60;98.30;;;;;;4792926;29;20042;-79
2022/09/03 02:37:39;;;;;;;1.55;1.10;;;15.60;98.50;;;;;;4792851;29;20406;-79
2022/09/03 02:40:08;;;;;;;4.35;2.25;;;15.60;98.30;;;;;;4809466;29;20133;-79
2022/09/03 02:42:35;;;;;;;2.85;1.30;;;15.50;98.50;;;;;;4793136;29;20081;-80
2022/09/03 02:45:20;;;;;;;2.88;1.30;;;15.50;98.90;;;;;;4792921;29;20141;-80
2022/09/03 02:47:51;;;;;;;3.53;1.50;;;15.60;98.30;;;;;;4793217;29;20051;-79
2022/09/03 02:50:16;;;;;;;3.75;1.23;;;15.50;99.00;;;;;;4792964;29;20495;-80
2022/09/03 02:52:42;;;;;;;4.10;1.30;;;15.50;98.50;;;;;;4793189;29;20129;-81
2022/09/03 02:55:11;;;;;;;2.80;1.20;;;15.50;98.50;;;;;;4809121;29;20051;-79
2022/09/03 02:57:36;;;;;;;2.85;1.40;;;15.60;98.80;;;;;;4792569;29;20112;-79
2022/09/03 03:00:03;;;;;;;2.25;1.30;;;15.50;98.50;;;;;;4809295;29;20067;-78
2022/09/03 03:02:29;;;;;;;2.85;1.70;;;15.50;98.50;;;;;;4792907;29;20049;-79
2022/09/03 03:04:55;;;;;;;3.55;1.38;;;15.50;98.60;;;;;;4792676;29;20047;-79
2022/09/03 03:07:20;;;;;;;2.00;1.30;;;15.50;98.60;;;;;;4792947;29;20050;-79
2022/09/03 03:09:46;;;;;;;3.42;1.30;;;15.50;99.00;;;;;;4792721;29;20047;-79
2022/09/03 03:12:12;;;;;;;4.13;1.33;;;15.50;99.20;;;;;;4792721;29;20050;-79
2022/09/03 03:14:37;;;;;;;5.32;1.45;;;15.50;98.80;;;;;;4792554;29;20464;-80
2022/09/03 03:17:03;;;;;;;5.35;1.42;;;15.50;98.80;;;;;;4808957;29;20038;-81
2022/09/03 03:19:28;;;;;;;4.07;1.80;;;15.50;99.00;;;;;;4792295;29;20078;-81
2022/09/03 03:21:54;;;;;;;3.15;1.40;;;15.40;98.90;;;;;;4792483;29;20058;-80
2022/09/03 03:24:20;;;;;;;3.00;1.42;;;15.50;98.80;;;;;;4792619;29;20086;-79
2022/09/03 03:26:45;;;;;;;3.05;1.63;;;15.40;99.10;;;;;;4808658;29;20043;-79
2022/09/03 03:29:19;;;;;;;4.40;1.60;;;15.40;99.20;;;;;;4792243;29;20054;-80
2022/09/03 03:31:45;;;;;;;4.05;1.45;;;15.40;99.70;;;;;;4792438;29;20487;-80
2022/09/03 03:34:10;;;;;;;2.70;1.63;;;15.30;99.20;;;;;;4792605;29;20062;-80
2022/09/03 03:36:36;;;;;;;2.92;1.70;;;15.20;99.40;;;;;;4808542;29;20207;-81
2022/09/03 03:39:02;;;;;;;2.65;1.50;;;15.30;99.30;;;;;;4792057;29;20100;-81
2022/09/03 03:41:35;;;;;;;3.65;1.63;;;15.40;99.10;;;;;;4791651;29;20051;-79
2022/09/03 03:44:03;;;;;;;3.17;1.85;;;15.40;99.30;;;;;;4791395;29;20069;-81
2022/09/03 03:46:32;;;;;;;2.45;1.95;;;15.30;99.50;;;;;;4792248;29;20051;-81
2022/09/03 03:48:58;;;;;;;3.67;1.65;;;15.30;99.20;;;;;;4791969;29;20467;-80
2022/09/03 03:51:25;;;;;;;5.25;1.92;;;15.30;99.40;;;;;;4808257;29;20059;-79
2022/09/03 03:53:54;;;;;;;4.70;1.58;;;15.30;99.20;;;;;;4791936;29;20051;-81
2022/09/03 03:56:20;;;;;;;5.28;1.90;;;15.30;99.70;;;;;;4792105;29;20059;-80
2022/09/03 03:58:47;;;;;;;3.38;1.60;;;15.40;99.40;;;;;;4791822;29;20482;-79
2022/09/03 04:01:18;;;;;;;4.38;1.35;;;15.30;99.70;;;;;;4808070;29;20077;-81
2022/09/03 04:03:44;;;;;;;2.83;1.58;;;15.30;99.60;;;;;;4792056;29;20093;-81
2022/09/03 04:06:13;;;;;;;3.45;1.70;;;15.40;99.50;;;;;;4791730;29;20133;-80
2022/09/03 04:08:41;;;;;;;2.13;1.30;;;15.30;99.60;;;;;;4791809;29;20059;-78
2022/09/03 04:11:09;;;;;;;6.20;1.98;;;15.30;99.90;;;;;;4791812;29;20123;-80
2022/09/03 04:13:37;;;;;;;3.08;1.67;;;15.30;99.60;;;;;;4791553;29;20147;-80
2022/09/03 04:16:08;;;;;;;3.47;1.98;;;15.30;99.50;;;;;;4791743;29;20544;-81
2022/09/03 04:18:35;;;;;;;5.22;1.70;;;15.30;99.80;;;;;;4791453;29;20058;-80
2022/09/03 04:21:12;;;;;;;5.88;1.80;;;15.20;99.70;;;;;;4791293;29;20057;-79
2022/09/03 04:23:44;;;;;;;2.83;1.65;;;15.20;99.90;;;;;;4791600;29;20051;-80
2022/09/03 04:26:12;;;;;;;4.07;2.30;;;15.20;99.70;;;;;;4807623;29;20047;-80
2022/09/03 04:28:38;;;;;;;3.50;1.77;;;15.30;99.60;;;;;;4791387;29;20054;-81
2022/09/03 04:31:08;;;;;;;3.92;1.75;;;15.30;99.70;;;;;;4807447;29;20135;-80
2022/09/03 04:33:34;;;;;;;5.85;2.00;;;15.30;99.70;;;;;;4807890;29;20039;-80
2022/09/03 04:36:09;;;;;;;3.33;1.85;;;15.20;99.90;;;;;;4807466;29;20059;-79
2022/09/03 04:38:37;;;;;;;3.38;1.85;;;15.20;99.90;;;;;;4791101;29;20047;-81
2022/09/03 04:41:09;;;;;;;4.15;1.95;;;15.20;99.90;;;;;;4791218;29;20051;-81
2022/09/03 04:43:35;;;;;;;2.92;1.90;;;15.30;99.80;;;;;;4790608;29;20486;-79
2022/09/03 04:46:03;;;;;;;5.13;1.80;;;15.20;99.80;;;;;;4790581;29;20479;-79
2022/09/03 04:48:30;;;;;;;2.70;1.58;;;15.20;99.80;;;;;;4806550;29;20121;-80
2022/09/03 04:51:12;;;;;;;6.50;2.25;;;15.30;99.90;;;;;;4789210;29;20392;-81
2022/09/03 04:53:40;;;;;;;2.88;2.00;;;15.20;99.90;;;;;;4790598;29;20062;-80
2022/09/03 04:56:13;;;;;;;3.22;1.80;;;15.20;99.90;;;;;;4790577;29;20125;-79
2022/09/03 04:58:42;;;;;;;2.65;1.88;;;15.20;99.90;;;;;;4790456;29;20046;-78
2022/09/03 05:01:09;;;;;;;4.63;2.03;;;15.20;99.90;;;;;;4806876;29;20130;-80
2022/09/03 05:03:36;;;;;;;3.35;1.83;;;15.20;99.90;;;;;;4790691;29;20486;-80
2022/09/03 05:06:04;;;;;;;3.80;1.92;;;15.20;99.90;;;;;;4790532;29;20525;-79
2022/09/03 05:08:30;;;;;;;6.10;1.90;;;15.10;99.90;;;;;;4790353;29;20491;-80
2022/09/03 05:11:00;;;;;;;3.20;1.90;;;15.10;99.90;;;;;;4790726;29;20046;-80
2022/09/03 05:13:27;;;;;;;3.72;2.00;;;15.10;99.90;;;;;;4806625;29;20058;-79
2022/09/03 05:16:01;;;;;;;3.75;2.42;;;15.20;99.90;;;;;;4790655;29;20054;-79
2022/09/03 05:18:28;;;;;;;2.90;1.80;;;15.10;99.90;;;;;;4790476;29;20069;-80
2022/09/03 05:21:02;;;;;;;3.95;2.00;;;15.20;99.90;;;;;;4790155;29;20047;-78
2022/09/03 05:23:29;;;;;;;4.80;1.92;;;15.20;99.90;;;;;;4806757;29;20055;-78
2022/09/03 05:26:01;;;;;;;4.43;2.00;;;15.20;99.90;;;;;;4790172;29;20057;-80
2022/09/03 05:28:29;;;;;;;5.28;2.30;;;15.20;99.90;;;;;;4790252;29;20080;-79
2022/09/03 05:31:03;;;;;;;4.53;1.95;;;15.10;99.90;;;;;;4790057;29;20055;-80
2022/09/03 05:33:28;;;;;;;4.30;2.33;;;15.10;99.90;;;;;;4790308;29;20182;-79
2022/09/03 05:36:00;;;;;;;3.63;2.10;;;15.10;99.90;;;;;;4790343;29;20093;-80
2022/09/03 05:38:26;;;;;;;3.97;2.13;;;15.20;99.90;;;;;;4790021;29;20414;-80
2022/09/03 05:40:52;;;;;;;2.70;1.92;;;15.20;99.90;;;;;;4790327;29;20487;-80
2022/09/03 05:43:19;;;;;;;3.42;1.92;;;15.20;99.90;;;;;;4789887;29;20062;-79
2022/09/03 05:45:45;;;;;;;3.92;1.92;;;15.20;99.90;;;;;;4790222;29;20055;-80
2022/09/03 05:48:11;;;;;;;4.03;1.92;;;15.30;99.90;;;;;;4789945;29;20070;-79
2022/09/03 05:50:36;;;;;;;3.33;2.10;;;15.40;99.90;;;;;;4790161;29;20082;-80
2022/09/03 05:53:02;;;;;;;5.22;2.20;;;15.50;99.90;;;;;;4789944;29;20051;-79
2022/09/03 05:55:27;;;;;;;3.55;1.83;;;15.50;99.90;;;;;;4806278;29;20610;-79
2022/09/03 05:57:53;;;;;;;3.15;1.80;;;15.60;99.90;;;;;;4806242;29;20116;-78
2022/09/03 06:00:19;;;;;;;6.22;2.03;;;15.80;99.90;;;;;;4790165;29;20491;-79
2022/09/03 06:02:52;;;;;;;4.20;1.90;;;15.90;99.90;;;;;;4789844;29;20058;-80
2022/09/03 06:05:18;;;;;;;2.95;1.92;;;16.00;99.90;;;;;;4806565;29;20090;-80
2022/09/03 06:07:48;;;;;;;3.45;1.92;;;16.00;99.90;;;;;;4793669;29;20055;-80
2022/09/03 06:10:16;;;;;;;5.20;2.20;;;16.10;99.90;;;;;;4793734;29;20051;-80
2022/09/03 06:12:48;;;;;;;3.67;1.70;;;16.20;99.90;;;;;;4793443;29;20130;-79
2022/09/03 06:15:15;;;;;;;3.97;1.75;;;16.30;99.90;;;;;;4793483;29;20509;-79
2022/09/03 06:17:40;;;;;;;3.60;1.80;;;16.40;99.90;;;;;;4793357;29;20411;-80
2022/09/03 06:20:07;;;;;;;4.85;1.90;;;16.40;99.90;;;;;;4809660;29;20065;-81
2022/09/03 06:22:32;;;;;;;2.95;1.70;;;16.40;99.90;;;;;;4793470;29;20076;-79
2022/09/03 06:24:58;;;;;;;2.60;1.73;;;16.50;99.90;;;;;;4793228;29;20415;-78
2022/09/03 06:27:23;;;;;;;2.78;1.88;;;16.60;99.90;;;;;;4793228;29;20047;-79
2022/09/03 06:29:49;;;;;;;4.25;2.10;;;16.70;99.90;;;;;;4793352;29;20059;-79
2022/09/03 06:32:15;;;;;;;3.53;1.63;;;16.80;99.90;;;;;;4809366;29;20065;-79
2022/09/03 06:34:41;;;;;;;3.92;1.90;;;16.90;99.80;;;;;;4793423;29;20055;-79
2022/09/03 06:37:06;;;;;;;3.38;1.60;;;17.00;99.50;;;;;;4809327;29;20487;-79
2022/09/03 06:39:32;;;;;;;2.63;1.77;;;17.10;99.50;;;;;;4793194;29;20050;-79
2022/09/03 06:41:58;;;;;;;2.63;1.52;;;17.30;99.40;;;;;;4793149;29;20051;-79
2022/09/03 06:44:23;;;;;;;3.25;1.90;;;17.30;99.30;;;;;;4808933;29;20062;-79
2022/09/03 06:46:49;;;;;;;5.05;1.77;;;17.40;99.10;;;;;;4809173;29;20055;-79
2022/09/03 06:49:15;;;;;;;3.35;1.60;;;17.50;99.00;;;;;;4792812;29;20054;-81
2022/09/03 06:51:42;;;;;;;4.50;1.98;;;17.60;98.90;;;;;;4793003;29;20096;-79
2022/09/03 06:54:10;;;;;;;3.78;1.80;;;17.70;98.90;;;;;;4792822;29;20507;-80
2022/09/03 06:56:38;;;;;;;3.72;1.88;;;17.60;99.00;;;;;;4792728;29;20054;-78
2022/09/03 06:59:06;;;;;;;2.70;1.60;;;17.60;99.00;;;;;;4792497;29;20087;-79
2022/09/03 07:01:33;;;;;;;2.28;1.55;;;17.80;98.80;;;;;;4809055;29;20117;-78
2022/09/03 07:04:03;;;;;;;5.57;1.80;;;17.90;98.90;;;;;;4792755;29;20066;-80
2022/09/03 07:06:38;;;;;;;3.60;1.48;;;17.90;98.90;;;;;;4792729;29;20055;-84
2022/09/03 07:09:09;;;;;;;4.45;1.60;;;18.00;98.70;;;;;;4792510;29;20050;-80
2022/09/03 07:11:35;;;;;;;3.53;1.75;;;18.00;98.50;;;;;;4792237;29;20499;-79
2022/09/03 07:14:03;;;;;;;3.33;1.60;;;18.00;98.60;;;;;;4791972;29;20063;-80
2022/09/03 07:16:34;;;;;;;2.97;1.80;;;18.10;98.50;;;;;;4808173;29;20057;-80
2022/09/03 07:19:04;;;;;;;4.65;1.60;;;18.10;98.20;;;;;;4788630;29;20059;-78
2022/09/03 07:21:35;;;;;;;2.63;1.45;;;18.00;98.10;;;;;;4781641;30;20356;-78
2022/09/03 07:24:02;;;;;;;5.35;1.80;;;18.20;98.40;;;;;;4774226;30;20051;-78
2022/09/03 07:26:34;;;;;;;3.33;1.58;;;18.20;98.30;;;;;;4774138;30;20103;-78
2022/09/03 07:29:00;;;;;;;2.83;1.60;;;18.30;98.30;;;;;;4790473;29;20043;-82
2022/09/03 07:31:32;;;;;;;4.50;1.55;;;18.50;98.10;;;;;;4774104;30;20365;-77
2022/09/03 07:34:04;;;;;;;5.43;1.73;;;18.40;97.70;;;;;;4774025;30;20063;-80
2022/09/03 07:36:35;;;;;;;3.17;1.55;;;18.50;98.00;;;;;;4773838;30;20368;-78
2022/09/03 07:39:00;;;;;;;2.63;1.40;;;18.60;98.00;;;;;;4773784;30;20130;-78
2022/09/03 07:41:26;;;;;;;4.50;1.40;;;18.70;98.00;;;;;;4803015;29;20142;-79
2022/09/03 07:43:53;;;;;;;3.35;1.58;;;18.70;97.70;;;;;;4791658;29;20089;-80
2022/09/03 07:46:23;;;;;;;4.55;1.60;;;18.80;97.70;;;;;;4791757;29;20566;-79
2022/09/03 07:48:54;;;;;;;2.58;1.20;;;18.80;97.60;;;;;;4791111;29;20052;-80
2022/09/03 07:51:25;;;;;;;3.28;1.73;;;18.90;97.90;;;;;;4791235;29;20047;-80
2022/09/03 07:53:53;;;;;;;2.50;1.60;;;19.00;97.20;;;;;;4791489;29;20046;-80
2022/09/03 07:56:19;;;;;;;3.97;1.52;;;19.10;97.50;;;;;;4791513;29;20133;-79
2022/09/03 07:58:46;;;;;;;2.63;1.70;;;19.20;97.50;;;;;;4791637;29;20129;-80
2022/09/03 08:01:14;;;;;;;3.05;1.50;;;19.30;97.80;;;;;;4791802;29;20058;-80
2022/09/03 08:03:50;;;;;;;3.90;1.77;;;19.40;97.70;;;;;;4790255;29;20058;-81
2022/09/03 08:06:18;;;;;;;4.63;1.80;;;19.50;97.50;;;;;;4783204;29;20529;-82
2022/09/03 08:08:44;;;;;;;3.30;1.40;;;19.60;97.00;;;;;;4796870;29;20047;-81
2022/09/03 08:11:11;;;;;;;3.10;1.40;;;19.70;97.10;;;;;;4773450;30;20070;-80
2022/09/03 08:13:43;;;;;;;2.72;1.42;;;19.70;97.30;;;;;;4789552;30;20103;-80
2022/09/03 08:16:11;;;;;;;3.53;1.50;;;19.90;97.30;;;;;;4773681;30;20090;-80
2022/09/03 08:18:37;;;;;;;3.83;1.30;;;19.90;96.30;;;;;;4773191;30;20385;-79
2022/09/03 08:21:08;;;;;;;3.28;1.42;;;19.90;96.60;;;;;;4781258;29;20054;-82
2022/09/03 08:23:45;;;;;;;3.92;1.58;;;19.90;96.00;;;;;;4791121;29;20058;-80
2022/09/03 08:26:11;;;;;;;4.40;1.60;;;20.00;96.20;;;;;;4791139;29;20051;-81
2022/09/03 08:28:37;;;;;;;2.38;1.20;;;20.10;96.30;;;;;;4790298;29;20547;-80
2022/09/03 08:31:11;;;;;;;3.15;1.60;;;20.10;96.40;;;;;;4806011;29;20043;-80
2022/09/03 08:33:41;;;;;;;3.92;1.50;;;20.20;96.70;;;;;;4790833;29;20058;-81
2022/09/03 08:36:11;;;;;;;3.35;1.30;;;20.30;96.60;;;;;;4790255;29;20403;-81
2022/09/03 08:38:41;;;;;;;5.85;1.48;;;20.60;96.60;;;;;;4788873;29;20065;-81
2022/09/03 08:41:16;;;;;;;4.25;1.60;;;20.60;96.40;;;;;;4790743;29;20050;-80
2022/09/03 08:43:52;;;;;;;2.70;1.42;;;20.70;95.80;;;;;;4790679;29;20063;-82
2022/09/03 08:46:20;;;;;;;3.92;1.50;;;20.90;95.50;;;;;;4791129;29;20062;-81
2022/09/03 08:48:47;;;;;;;7.63;1.52;;;21.00;95.80;;;;;;4806885;29;20176;-80
2022/09/03 08:51:15;;;;;;;2.30;1.30;;;21.10;95.60;;;;;;4790721;29;20062;-80
2022/09/03 08:53:54;;;;;;;4.75;1.52;;;21.00;95.70;;;;;;4789474;29;20452;-82
2022/09/03 08:56:30;;;;;;;4.50;1.70;;;21.10;95.00;;;;;;4789719;29;20046;-80
2022/09/03 08:58:56;;;;;;;7.15;1.45;;;21.10;94.60;;;;;;4790158;29;20133;-81
2022/09/03 09:01:56;;;;;;;3.70;1.83;;;21.30;95.70;;;;;;4790320;29;20151;-81
2022/09/03 09:04:27;;;;;;;2.33;1.50;;;21.30;95.50;;;;;;4790751;29;20066;-81
2022/09/03 09:07:17;;;;;;;5.13;1.70;;;21.50;95.80;;;;;;4790620;29;20055;-80
2022/09/03 09:09:56;;;;;;;2.45;1.20;;;21.70;95.50;;;;;;4790724;29;20115;-88
2022/09/03 09:12:43;;;;;;;5.82;1.70;;;21.80;94.70;;;;;;4790598;29;20051;-81
2022/09/03 09:15:47;;;;;;;1.95;1.25;;;21.90;94.90;;;;;;4790603;29;20116;-81
2022/09/03 09:18:39;;;;;;;3.25;1.40;;;22.00;95.10;;;;;;4790262;29;20055;-79
2022/09/03 09:21:12;;;;;;;3.53;1.58;;;22.00;95.10;;;;;;4790567;29;20074;-80
2022/09/03 09:23:49;;;;;;;2.83;1.20;;;22.10;95.10;;;;;;4806643;29;20055;-80
2022/09/03 09:26:19;;;;;;;3.50;1.17;;;22.30;94.90;;;;;;4790589;29;20058;-80
2022/09/03 09:28:46;;;;;;;2.17;1.30;;;22.30;94.70;;;;;;4790417;29;20039;-81
2022/09/03 09:31:17;;;;;;;3.42;1.50;;;22.30;94.30;;;;;;4806742;29;20132;-80
2022/09/03 09:33:43;;;;;;;3.60;1.60;;;22.30;94.30;;;;;;4791228;29;20131;-82
2022/09/03 09:36:14;;;;;;;4.57;1.65;;;22.30;94.60;;;;;;4790490;29;20497;-80
2022/09/03 09:38:40;;;;;;;3.25;1.42;;;22.40;94.60;;;;;;4790159;29;20069;-80
2022/09/03 09:41:09;;;;;;;4.28;1.80;;;22.60;94.60;;;;;;4806279;29;20051;-79
2022/09/03 09:43:35;;;;;;;2.60;1.33;;;22.70;94.50;;;;;;4789908;29;20196;-80
2022/09/03 09:46:13;;;;;;;4.85;1.10;;;22.90;94.40;;;;;;4790257;29;20137;-79
2022/09/03 09:48:53;;;;;;;2.50;1.40;;;22.90;94.50;;;;;;4790002;29;20100;-80
2022/09/03 09:51:21;;;;;;;3.97;1.10;;;23.10;94.10;;;;;;4790190;29;20407;-82
2022/09/03 09:53:58;;;;;;;9.20;1.50;;;23.10;93.90;;;;;;4806319;29;20051;-86
2022/09/03 09:56:25;;;;;;;2.58;1.30;;;23.10;92.70;;;;;;4806383;29;20059;-80
2022/09/03 09:59:02;;;;;;;6.68;1.73;;;23.10;92.80;;;;;;4789823;29;20070;-80
2022/09/03 10:01:30;;;;;;;3.83;1.55;;;23.10;92.90;;;;;;4806283;29;20055;-83
2022/09/03 10:03:59;;;;;;;3.95;1.25;;;23.30;93.90;;;;;;4789819;29;20047;-81
2022/09/03 10:09:18;;;;;;;6.05;1.40;;;23.40;92.90;;;;;;4789844;29;20414;-82
2022/09/03 10:11:49;;;;;;;2.33;1.20;;;23.50;93.60;;;;;;4789756;29;20046;-81
2022/09/03 10:14:23;;;;;;;4.22;1.35;;;23.30;92.80;;;;;;4789835;29;20185;-82
2022/09/03 10:17:04;;;;;;;3.83;1.40;;;23.10;92.70;;;;;;4789651;29;20046;-84
2022/09/03 10:23:10;;;;;;;6.15;1.20;;;23.50;92.80;;;;;;4806005;29;20061;-83
2022/09/03 10:25:56;;;;;;;7.68;1.20;;;23.70;93.60;;;;;;4789850;29;20503;-83
2022/09/03 10:28:26;;;;;;;6.22;1.27;;;23.90;93.70;;;;;;4789981;29;20051;-82
2022/09/03 10:31:22;;;;;;;4.40;1.45;;;24.10;92.30;;;;;;4790046;29;20111;-81
2022/09/03 10:34:05;;;;;;;5.47;1.25;;;24.20;92.50;;;;;;4789735;29;20055;-81
2022/09/03 10:36:42;;;;;;;3.38;1.15;;;24.20;92.60;;;;;;4805971;29;20038;-83
2022/09/03 10:39:21;;;;;;;3.10;1.77;;;24.40;91.50;;;;;;4789547;29;20130;-81
2022/09/03 10:41:54;;;;;;;4.57;1.48;;;24.50;92.50;;;;;;4789530;29;20513;-81
2022/09/03 10:44:59;;;;;;;3.67;1.15;;;24.60;92.50;;;;;;4789443;29;20134;-81
2022/09/03 10:47:43;;;;;;;12.02;1.67;;;24.60;91.00;;;;;;4788462;29;20058;-82
2022/09/03 10:50:43;;;;;;;2.40;1.10;;;24.60;91.10;;;;;;4789671;29;20093;-81
2022/09/03 10:53:28;;;;;;;2.80;1.35;;;24.70;91.30;;;;;;4792397;29;20055;-80
2022/09/03 10:56:16;;;;;;;3.70;1.25;;;24.80;91.50;;;;;;4809249;29;20077;-85
2022/09/03 10:59:03;;;;;;;3.67;1.05;;;24.80;92.00;;;;;;4792622;29;20059;-81
2022/09/03 11:01:40;;;;;;;7.90;1.30;;;25.10;91.80;;;;;;4792940;29;20062;-80
2022/09/03 11:04:24;;;;;;;3.53;1.20;;;25.10;90.50;;;;;;4792569;29;20099;-86
2022/09/03 11:06:59;;;;;;;1.77;1.02;;;25.20;90.30;;;;;;4792402;29;20050;-83
2022/09/03 11:09:42;;;;;;;4.03;0.98;;;25.30;90.90;;;;;;4792531;29;20057;-83
2022/09/03 11:12:27;;;;;;;1.92;0.90;;;25.40;88.40;;;;;;4808642;29;20077;-83
2022/09/03 11:15:31;;;;;;;2.10;1.20;;;25.30;90.20;;;;;;4808786;29;20055;-80
2022/09/03 11:18:18;;;;;;;5.00;1.20;;;25.30;89.50;;;;;;4806564;29;20062;-81
2022/09/03 11:20:46;;;;;;;5.68;1.42;;;25.60;89.10;;;;;;4808577;29;20142;-82
2022/09/03 11:23:13;;;;;;;6.40;1.13;;;25.70;89.10;;;;;;4808608;29;20046;-82
2022/09/03 11:25:52;;;;;;;2.63;1.10;;;25.70;87.80;;;;;;4808545;29;20108;-86
2022/09/03 11:28:40;;;;;;;4.20;1.02;;;25.80;88.60;;;;;;4792799;29;20431;-83
2022/09/03 11:31:42;;;;;;;4.28;1.20;;;25.80;87.80;;;;;;4792410;29;20094;-84
2022/09/03 11:34:25;;;;;;;3.33;0.95;;;25.80;87.10;;;;;;4808571;29;20368;-86
2022/09/03 11:37:03;;;;;;;4.47;1.30;;;26.00;86.80;;;;;;4792290;29;20272;-85
2022/09/03 11:39:31;;;;;;;2.80;0.90;;;26.10;87.60;;;;;;4808793;29;20084;-86
2022/09/03 11:42:34;;;;;;;2.90;1.02;;;26.00;86.80;;;;;;4808334;29;20090;-86
2022/09/03 11:45:29;;;;;;;3.70;1.20;;;26.20;87.60;;;;;;4792089;29;20059;-85
2022/09/03 11:47:55;;;;;;;2.95;1.25;;;26.20;85.10;;;;;;4792155;29;20050;-85
2022/09/03 11:50:24;;;;;;;2.97;0.90;;;26.20;86.60;;;;;;4808495;29;20051;-86
2022/09/03 11:52:55;;;;;;;6.07;1.30;;;26.20;86.20;;;;;;4792317;29;20099;-87
2022/09/03 11:55:48;;;;;;;3.50;1.20;;;26.00;86.00;;;;;;4792080;29;20051;-84
2022/09/03 11:58:25;;;;;;;2.58;1.10;;;26.10;83.80;;;;;;4803869;29;20063;-85
2022/09/03 12:00:53;;;;;;;2.03;0.90;;;26.10;86.40;;;;;;4791753;29;20047;-84
2022/09/03 12:03:27;;;;;;;2.28;1.00;;;26.20;86.40;;;;;;4791066;29;20055;-84
2022/09/03 12:06:07;;;;;;;2.60;0.98;;;26.10;82.40;;;;;;4791664;29;20058;-84
2022/09/03 12:08:33;;;;;;;2.50;1.15;;;26.20;85.70;;;;;;4807919;29;20526;-84
2022/09/03 12:11:27;;;;;;;6.75;1.33;;;26.10;84.50;;;;;;4791807;29;20058;-84
2022/09/03 12:13:52;;;;;;;3.80;1.10;;;26.00;82.70;;;;;;4791753;29;20061;-83
2022/09/03 12:16:30;;;;;;;3.58;1.42;;;26.10;83.80;;;;;;4791476;29;20150;-85
2022/09/03 12:19:06;;;;;;;2.10;1.00;;;26.20;83.00;;;;;;4807746;29;20054;-83
2022/09/03 12:21:38;;;;;;;5.07;1.42;;;26.20;81.80;;;;;;4807643;29;20055;-83
2022/09/03 12:24:04;;;;;;;8.90;1.30;;;26.30;81.10;;;;;;4791621;29;20062;-83
2022/09/03 12:26:40;;;;;;;4.10;1.10;;;26.20;82.70;;;;;;4791495;29;20050;-85
2022/09/03 12:29:18;;;;;;;4.78;1.10;;;26.30;80.40;;;;;;4791645;29;20487;-86
2022/09/03 12:31:47;;;;;;;3.40;1.00;;;26.30;82.60;;;;;;4791465;29;20445;-86
2022/09/03 12:34:19;;;;;;;5.85;1.00;;;26.40;82.70;;;;;;4791441;29;20046;-85
2022/09/03 12:36:51;;;;;;;2.17;0.90;;;26.50;82.40;;;;;;4807583;29;20111;-86
2022/09/03 12:39:20;;;;;;;3.67;1.10;;;26.40;80.10;;;;;;4791043;29;20063;-85
2022/09/03 12:42:13;;;;;;;5.20;1.30;;;26.40;81.60;;;;;;4790979;29;20094;-84
2022/09/03 12:44:40;;;;;;;4.32;1.05;;;26.50;82.00;;;;;;4787303;29;20064;-85
2022/09/03 12:47:09;;;;;;;4.40;1.05;;;26.30;80.60;;;;;;4790958;29;20054;-87
2022/09/03 12:49:36;;;;;;;2.33;1.08;;;26.50;78.70;;;;;;4790909;29;20403;-85
2022/09/03 12:52:25;;;;;;;2.45;1.13;;;26.40;79.90;;;;;;4791013;29;20047;-87
2022/09/03 12:55:09;;;;;;;5.15;1.00;;;26.50;79.10;;;;;;4790705;29;20063;-86
2022/09/03 12:58:09;;;;;;;2.40;1.00;;;26.60;81.70;;;;;;4790785;29;20086;-88
2022/09/03 13:00:38;;;;;;;3.28;1.27;;;26.50;76.80;;;;;;4790764;29;20071;-86
2022/09/03 13:03:11;;;;;;;4.97;1.33;;;26.50;79.90;;;;;;4790722;29;20057;-87
2022/09/03 13:05:45;;;;;;;3.00;1.08;;;26.60;78.60;;;;;;4790777;29;20103;-83
2022/09/03 13:08:20;;;;;;;2.38;0.90;;;26.60;79.80;;;;;;4790957;29;20107;-87
2022/09/03 13:10:52;;;;;;;3.38;1.42;;;26.70;78.40;;;;;;4791052;29;20055;-84
2022/09/03 13:13:28;;;;;;;3.83;1.40;;;26.60;77.90;;;;;;4790701;29;20115;-82
2022/09/03 13:16:28;;;;;;;3.22;0.98;;;26.50;76.50;;;;;;4790517;29;20078;-83
2022/09/03 13:19:30;;;;;;;4.22;1.30;;;26.60;79.80;;;;;;4790343;29;20055;-84
2022/09/03 13:21:59;;;;;;;;;;;26.60;79.20;;;;;;4791073;29;20510;-85
2022/09/03 13:24:52;;;;;;;3.05;1.00;;;26.60;78.30;;;;;;4790611;29;19935;-87
2022/09/03 13:27:37;;;;;;;3.85;1.00;;;26.60;75.20;;;;;;4790724;29;20498;-89